createdAt,value
2022-09-24T00:00:08.813Z,12.3
2022-09-24T00:05:08.245Z,12.3
2022-09-24T00:10:07.977Z,12.5
2022-09-24T00:15:07.686Z,12.5
2022-09-24T00:20:08.425Z,12.3
2022-09-24T00:25:14.116Z,12.3
2022-09-24T00:30:07.823Z,12.3
2022-09-24T00:35:08.574Z,12.3
2022-09-24T00:40:08.737Z,12.5
2022-09-24T00:45:08.493Z,12.3
2022-09-24T00:50:18.206Z,12.3
2022-09-24T00:55:07.933Z,12.3
2022-09-24T01:00:07.720Z,12.3
2022-09-24T01:05:08.425Z,12.3
2022-09-24T01:10:08.893Z,12.1
2022-09-24T01:15:08.601Z,12.1
2022-09-24T01:20:08.308Z,12.1
2022-09-24T01:25:08.011Z,12.1
2022-09-24T01:30:07.686Z,12.1
2022-09-24T01:35:18.375Z,12.3
2022-09-24T01:40:08.141Z,12.3
2022-09-24T01:45:07.931Z,12.3
2022-09-24T01:50:09.948Z,12.1
2022-09-24T01:55:07.628Z,12.3
2022-09-24T02:00:08.334Z,12.1
2022-09-24T02:05:08.271Z,12.1
2022-09-24T02:10:07.946Z,12.3
2022-09-24T02:15:07.671Z,12.1
2022-09-24T02:20:08.389Z,12.1
2022-09-24T02:25:08.067Z,12.1
2022-09-24T02:30:07.755Z,12.1
2022-09-24T02:35:08.442Z,12.1
2022-09-24T02:40:08.204Z,12.3
2022-09-24T02:45:07.955Z,12.1
2022-09-24T02:50:07.657Z,12.1
2022-09-24T02:55:08.365Z,12.1
2022-09-24T03:00:08.067Z,12.1
2022-09-24T03:05:07.803Z,12.1
2022-09-24T03:10:08.526Z,12.1
2022-09-24T03:15:08.198Z,12.1
2022-09-24T03:20:07.993Z,12.1
2022-09-24T03:25:08.022Z,12.3
2022-09-24T03:30:07.724Z,12.3
2022-09-24T03:35:08.442Z,12.3
2022-09-24T03:40:08.268Z,12.3
2022-09-24T03:45:08.110Z,12.3
2022-09-24T03:50:07.874Z,12.3
2022-09-24T03:55:08.623Z,12.3
2022-09-24T04:00:08.378Z,12.1
2022-09-24T04:05:02.144Z,12.1
2022-09-24T04:10:01.972Z,12.3
2022-09-24T04:15:01.878Z,12.1
2022-09-24T04:20:02.788Z,12.3
2022-09-24T04:25:02.570Z,12.5
2022-09-24T04:30:02.680Z,12.5
2022-09-24T04:35:07.371Z,12.3
2022-09-24T04:40:02.581Z,12.1
2022-09-24T04:45:02.605Z,12.3
2022-09-24T04:50:02.467Z,12.1
2022-09-24T04:55:02.282Z,12.1
2022-09-24T05:00:07.017Z,12.3
2022-09-24T05:05:01.971Z,12.3
2022-09-24T05:10:01.893Z,12.1
2022-09-24T05:15:02.797Z,12.1
2022-09-24T05:20:02.693Z,12.0
2022-09-24T05:25:02.634Z,12.0
2022-09-24T05:30:02.523Z,12.1
2022-09-24T05:35:02.495Z,12.1
2022-09-24T05:40:02.425Z,12.3
2022-09-24T05:45:02.435Z,12.1
2022-09-24T05:50:02.460Z,12.3
2022-09-24T05:55:02.443Z,12.3
2022-09-24T06:00:02.412Z,12.3
2022-09-24T06:05:02.441Z,12.3
2022-09-24T06:10:02.532Z,12.1
2022-09-24T06:15:02.689Z,12.1
2022-09-24T06:20:02.726Z,12.3
2022-09-24T06:25:02.623Z,12.5
2022-09-24T06:30:02.472Z,12.1
2022-09-24T06:35:02.401Z,12.1
2022-09-24T06:40:02.265Z,12.3
2022-09-24T06:45:02.116Z,12.3
2022-09-24T06:50:01.905Z,12.5
2022-09-24T06:55:02.773Z,12.5
2022-09-24T07:00:02.699Z,12.5
2022-09-24T07:05:02.594Z,12.5
2022-09-24T07:10:04.130Z,12.6
2022-09-24T07:15:02.052Z,12.6
2022-09-24T07:20:01.931Z,12.3
2022-09-24T07:25:02.765Z,12.3
2022-09-24T07:30:02.622Z,12.8
2022-09-24T07:35:02.431Z,12.8
2022-09-24T07:40:02.758Z,13.1
2022-09-24T07:45:02.661Z,13.1
2022-09-24T07:50:02.541Z,13.8
2022-09-24T07:55:02.452Z,13.8
2022-09-24T08:00:02.330Z,14.0
2022-09-24T08:05:02.078Z,14.0
2022-09-24T08:10:01.832Z,14.0
2022-09-24T08:15:02.681Z,14.0
2022-09-24T08:20:02.495Z,14.3
2022-09-24T08:25:02.193Z,14.3
2022-09-24T08:30:02.064Z,14.3
2022-09-24T08:35:01.995Z,14.3
2022-09-24T08:40:01.923Z,14.3
2022-09-24T08:45:02.866Z,14.3
2022-09-24T08:50:02.818Z,14.3
2022-09-24T08:55:02.721Z,14.3
2022-09-24T09:00:02.648Z,14.3
2022-09-24T09:05:02.407Z,14.1
2022-09-24T09:10:02.248Z,14.1
2022-09-24T09:15:02.067Z,14.1
2022-09-24T09:20:06.322Z,14.1
2022-09-24T09:25:04.259Z,14.1
2022-09-24T09:30:02.446Z,14.1
2022-09-24T09:35:02.293Z,14.3
2022-09-24T09:40:02.121Z,14.3
2022-09-24T09:45:01.948Z,14.1
2022-09-24T09:50:01.749Z,14.1
2022-09-24T09:55:02.708Z,14.1
2022-09-24T10:00:02.518Z,14.3
2022-09-24T10:05:02.390Z,14.3
2022-09-24T10:10:02.250Z,14.3
2022-09-24T10:15:12.028Z,14.6
2022-09-24T10:20:01.919Z,14.6
2022-09-24T10:25:02.748Z,14.5
2022-09-24T10:30:02.541Z,14.5
2022-09-24T10:35:02.387Z,14.6
2022-09-24T10:40:02.222Z,14.6
2022-09-24T10:45:02.014Z,15.0
2022-09-24T10:50:01.881Z,15.0
2022-09-24T10:55:02.730Z,15.1
2022-09-24T11:00:12.617Z,15.1
2022-09-24T11:05:02.675Z,15.3
2022-09-24T11:10:02.696Z,15.3
2022-09-24T11:15:02.795Z,15.1
2022-09-24T11:20:02.892Z,15.1
2022-09-24T11:25:02.941Z,15.1
2022-09-24T11:30:01.872Z,15.1
2022-09-24T11:35:02.937Z,15.1
2022-09-24T11:40:01.867Z,15.1
2022-09-24T11:45:02.871Z,15.6
2022-09-24T11:50:02.708Z,15.6
2022-09-24T11:55:02.713Z,15.5
2022-09-24T12:00:02.648Z,15.5
2022-09-24T12:05:02.517Z,16.2
2022-09-24T12:10:02.306Z,16.2
2022-09-24T12:15:02.175Z,16.2
2022-09-24T12:20:02.085Z,16.2
2022-09-24T12:25:01.947Z,16.0
2022-09-24T12:30:01.797Z,16.0
2022-09-24T12:35:02.814Z,15.8
2022-09-24T12:40:02.622Z,15.8
2022-09-24T12:45:02.535Z,15.8
2022-09-24T12:50:02.334Z,15.8
2022-09-24T12:55:02.281Z,15.8
2022-09-24T13:00:02.188Z,15.6
2022-09-24T13:05:02.003Z,15.6
2022-09-24T13:10:01.843Z,15.8
2022-09-24T13:15:02.723Z,15.8
2022-09-24T13:20:02.563Z,15.8
2022-09-24T13:25:02.406Z,15.8
2022-09-24T13:30:02.339Z,15.6
2022-09-24T13:35:02.392Z,15.6
2022-09-24T13:40:02.290Z,15.5
2022-09-24T13:45:05.016Z,15.5
2022-09-24T13:50:02.463Z,15.3
2022-09-24T13:55:02.443Z,15.3
2022-09-24T14:00:12.456Z,15.8
2022-09-24T14:05:02.362Z,15.8
2022-09-24T14:10:02.448Z,15.8
2022-09-24T14:15:02.558Z,15.8
2022-09-24T14:20:02.557Z,15.6
2022-09-24T14:25:02.547Z,15.6
2022-09-24T14:30:02.348Z,15.8
2022-09-24T14:35:02.279Z,15.8
2022-09-24T14:40:02.828Z,15.5
2022-09-24T14:45:01.798Z,15.5
2022-09-24T14:50:02.898Z,15.5
2022-09-24T14:55:01.781Z,15.5
2022-09-24T15:00:02.861Z,15.6
2022-09-24T15:10:02.310Z,15.1
2022-09-24T15:15:02.161Z,15.3
2022-09-24T15:20:02.050Z,15.1
2022-09-24T15:25:02.685Z,15.1
2022-09-24T15:30:02.800Z,15.0
2022-09-24T15:35:02.846Z,15.0
2022-09-24T15:40:02.740Z,15.0
2022-09-24T15:45:02.528Z,15.0
2022-09-24T15:50:02.387Z,14.8
2022-09-24T15:55:02.298Z,14.8
2022-09-24T16:00:02.787Z,14.6
2022-09-24T16:05:04.117Z,14.5
2022-09-24T16:10:02.250Z,14.5
2022-09-24T16:15:02.105Z,14.3
2022-09-24T16:20:02.008Z,14.3
2022-09-24T16:25:01.926Z,14.1
2022-09-24T16:30:02.864Z,14.1
2022-09-24T16:35:02.756Z,14.0
2022-09-24T16:40:02.852Z,13.6
2022-09-24T16:45:02.720Z,13.6
2022-09-24T16:50:02.679Z,13.5
2022-09-24T16:55:02.590Z,13.5
2022-09-24T17:00:02.449Z,13.3
2022-09-24T17:05:02.407Z,13.1
2022-09-24T17:10:02.401Z,13.1
2022-09-24T17:15:02.431Z,13.1
2022-09-24T17:20:02.253Z,12.8
2022-09-24T17:25:02.117Z,12.8
2022-09-24T17:30:02.454Z,13.1
2022-09-24T17:35:02.517Z,12.8
2022-09-24T17:40:02.677Z,12.8
2022-09-24T17:45:02.495Z,12.8
2022-09-24T17:50:02.315Z,13.1
2022-09-24T17:55:02.167Z,12.8
2022-09-24T18:00:01.995Z,12.8
2022-09-24T18:05:02.130Z,12.8
2022-09-24T18:10:02.163Z,12.8
2022-09-24T18:15:02.003Z,12.8
2022-09-24T18:20:01.815Z,12.6
2022-09-24T18:25:02.796Z,12.6
2022-09-24T18:30:02.962Z,12.5
2022-09-24T18:35:01.870Z,12.6
2022-09-24T18:40:02.770Z,12.6
2022-09-24T18:45:02.642Z,12.5
2022-09-24T18:50:02.704Z,12.5
2022-09-24T18:55:02.598Z,12.1
2022-09-24T19:00:02.378Z,12.3
2022-09-24T19:05:02.310Z,12.1
2022-09-24T19:10:02.443Z,12.1
2022-09-24T19:15:02.438Z,12.1
2022-09-24T19:20:02.438Z,12.1
2022-09-24T19:25:02.463Z,12.1
2022-09-24T19:30:02.331Z,12.1
2022-09-24T19:35:02.294Z,12.1
2022-09-24T19:40:02.375Z,12.1
2022-09-24T19:45:02.269Z,12.1
2022-09-24T19:50:02.054Z,12.1
2022-09-24T19:55:01.860Z,12.0
2022-09-24T20:00:02.749Z,12.0
2022-09-24T20:05:02.581Z,12.1
2022-09-24T20:10:02.513Z,12.1
2022-09-24T20:15:02.281Z,12.0
2022-09-24T20:20:02.140Z,12.0
2022-09-24T20:25:02.054Z,12.0
2022-09-24T20:30:01.983Z,12.0
2022-09-24T20:35:02.092Z,12.0
2022-09-24T20:40:01.995Z,11.6
2022-09-24T20:45:06.109Z,11.6
2022-09-24T20:50:02.261Z,11.8
2022-09-24T20:55:02.064Z,11.8
2022-09-24T21:00:02.468Z,11.8
2022-09-24T21:05:02.409Z,11.8
2022-09-24T21:10:02.408Z,11.8
2022-09-24T21:15:02.310Z,11.8
2022-09-24T21:20:02.081Z,11.6
2022-09-24T21:25:01.891Z,11.6
2022-09-24T21:30:02.648Z,11.6
2022-09-24T21:35:15.300Z,11.8
2022-09-24T21:40:08.071Z,11.6
2022-09-24T21:45:07.758Z,11.8
2022-09-24T21:50:08.440Z,11.8
2022-09-24T21:55:08.163Z,11.8
2022-09-24T22:00:07.868Z,12.1
2022-09-24T22:05:08.571Z,12.1
2022-09-24T22:10:08.292Z,12.1
2022-09-24T22:15:07.969Z,12.1
2022-09-24T22:20:07.675Z,12.1
2022-09-24T22:25:08.354Z,12.1
2022-09-24T22:30:08.064Z,12.3
2022-09-24T22:35:17.734Z,12.3
2022-09-24T22:40:08.516Z,12.1
2022-09-24T22:45:08.237Z,12.1
2022-09-24T22:50:07.926Z,12.1
2022-09-24T22:55:08.653Z,12.1
2022-09-24T23:01:01.536Z,12.1
2022-09-24T23:05:08.410Z,12.1
2022-09-24T23:10:08.247Z,12.3
2022-09-24T23:15:07.939Z,12.3
2022-09-24T23:20:07.642Z,12.1
2022-09-24T23:25:08.390Z,12.1
2022-09-24T23:30:08.050Z,12.1
2022-09-24T23:35:07.705Z,12.1
2022-09-24T23:40:08.498Z,12.1
2022-09-24T23:45:08.181Z,12.1
2022-09-24T23:50:07.874Z,12.0
2022-09-24T23:55:08.571Z,12.0
